Flight Track Log - Related Links

Times and Time Zones

All times are in EDT time to prevent confusion due to time zone crossing. See the UPS1301 flight status page for this flight to view local times or setup timezone preferences in your user account.

Time Position Orientation Groundspeed Altitude Reporting Facility
EDT Latitude Longitude Course Direction KTS MPH feet Rate Location/Type
Wed 10:51:25 PM 33.6510 -84.4180 98° East 29 33  Level FlightAware ADS-B
Wed 10:52:11 PM 33.6510 -84.4140 90° East 17 20 463 Level FlightAware ADS-B
Wed 10:52:39 PM 33.6510 -84.4120 90° East 16 18 540 Level FlightAware ADS-B
Wed 10:53:05 PM 33.6510 -84.4100 90° East 25 29 600 Level FlightAware ADS-B
Wed 10:53:55 PM 33.6490 -84.4100 180° South 34 39 670 Level FlightAware ADS-B
Wed 10:54:22 PM 33.6480 -84.4080 121° Southeast 34 39 862 Level FlightAware ADS-B
Wed 10:54:53 PM 33.6480 -84.4060 90° East 31 36 1,020 Level FlightAware ADS-B
Wed 10:55:25 PM 33.6470 -84.4060 180° South 20 23 1,293 Level FlightAware ADS-B
Wed 10:56:02 PM 33.6470 -84.4080 270° West 60 69 1,786 Level FlightAware ADS-B
Wed 10:56:49 PM 33.6470 -84.4430 270° West 150 173 2,500 2,301 Climbing FlightAware ADS-B
Wed 10:57:15 PM 33.6480 -84.4670 273° West 181 208 2,800 1,024 Climbing FlightAware ADS-B
Wed 10:57:30 PM 33.6520 -84.4820 288° West 196 226 3,200 2,143 Climbing FlightAware ADS-B
Wed 10:57:57 PM 33.6650 -84.5090 300° West 220 253 4,300 2,316 Climbing FlightAware ADS-B
Wed 10:58:27 PM 33.6800 -84.5420 299° West 249 287 5,400 2,087 Climbing FlightAware ADS-B
Wed 10:58:43 PM 33.6960 -84.5540 328° Northwest 263 303 5,900 2,591 Climbing FlightAware ADS-B
Wed 10:59:11 PM 33.7310 -84.5600 352° North 272 313 7,300 3,000 Climbing FlightAware ADS-B
Wed 10:59:37 PM 33.7640 -84.5620 357° North 282 325 8,600 2,943 Climbing FlightAware ADS-B
Wed 11:00:04 PM 33.7990 -84.5650 356° North 289 333 9,900 3,000 Climbing FlightAware ADS-B
Wed 11:00:41 PM 33.8490 -84.5690 356° North 294 338 11,800 3,111 Climbing FlightAware ADS-B
Wed 11:01:25 PM 33.9100 -84.5730 357° North 297 342 14,100 2,714 Climbing FlightAware ADS-B
Wed 11:02:05 PM 33.9670 -84.5770 357° North 322 371 15,600 1,816 Climbing FlightAware ADS-B
Wed 11:02:41 PM 34.0240 -84.5830 355° North 355 409 16,400 1,448 Climbing FlightAware ADS-B
Wed 11:03:03 PM 34.0617 -84.5872 355° North 331 381 17,000 2,038 Climbing FlightAware ADS-B
Wed 11:03:34 PM 34.1150 -84.5926 355° North 378 435 18,200 2,226 Climbing FlightAware ADS-B
Wed 11:04:05 PM 34.1693 -84.5977 356° North 386 444 19,300 2,095 Climbing FlightAware ADS-B
Wed 11:04:37 PM 34.2282 -84.6033 356° North 394 453 20,400 1,935 Climbing FlightAware ADS-B
Wed 11:05:07 PM 34.2836 -84.6087 355° North 401 461 21,300 1,800 Climbing FlightAware ADS-B
Wed 11:05:37 PM 34.3404 -84.6143 355° North 409 471 22,200 1,770 Climbing FlightAware ADS-B
Wed 11:06:08 PM 34.3984 -84.6201 355° North 416 479 23,100 1,672 Climbing FlightAware ADS-B
Wed 11:06:38 PM 34.4571 -84.6258 355° North 424 488 23,900 1,672 Climbing FlightAware ADS-B
Wed 11:07:09 PM 34.5175 -84.6317 355° North 430 495 24,800 1,839 Climbing FlightAware ADS-B
Wed 11:07:40 PM 34.5808 -84.6379 355° North 434 499 25,800 1,742 Climbing FlightAware ADS-B
Wed 11:08:11 PM 34.6426 -84.6439 355° North 441 507 26,600 2,066 Climbing FlightAware ADS-B
Wed 11:08:41 PM 34.7046 -84.6499 355° North 435 501 27,900 2,600 Climbing FlightAware ADS-B
Wed 11:09:11 PM 34.7650 -84.6558 355° North 429 494 29,200 1,800 Climbing FlightAware ADS-B
Wed 11:09:51 PM 34.8427 -84.6634 355° North 426 490 30,000 585 Climbing FlightAware ADS-B
Wed 11:10:33 PM 34.9266 -84.6717 355° North 429 494 30,000  Level FlightAware ADS-B
Wed 11:11:26 PM 35.0320 -84.6820 355° North 429 494 30,000  Level FlightAware ADS-B
Wed 11:11:42 PM 35.0622 -84.6852 355° North 429 494 30,000  Level FlightAware ADS-B
Wed 11:12:12 PM 35.1217 -84.6913 355° North 431 496 30,000  Level FlightAware ADS-B
Wed 11:12:42 PM 35.1815 -84.6973 355° North 428 493 30,000  Level FlightAware ADS-B
Wed 11:13:12 PM 35.2406 -84.7033 355° North 426 490 30,000  Level FlightAware ADS-B
Wed 11:13:42 PM 35.3000 -84.7094 355° North 426 490 30,000  Level FlightAware ADS-B
Wed 11:14:12 PM 35.3590 -84.7154 355° North 425 489 30,000  Level FlightAware ADS-B
Wed 11:14:43 PM 35.4184 -84.7215 355° North 423 487 30,000  Level FlightAware ADS-B
Wed 11:15:13 PM 35.4769 -84.7276 355° North 423 487 30,000  Level FlightAware ADS-B
Wed 11:15:43 PM 35.5356 -84.7339 355° North 423 487 30,000  Level FlightAware ADS-B
Wed 11:16:13 PM 35.5940 -84.7399 355° North 422 486 30,000  Level FlightAware ADS-B
Wed 11:16:43 PM 35.6524 -84.7460 355° North 422 486 30,000  Level FlightAware ADS-B
Wed 11:17:17 PM 35.7182 -84.7529 355° North 422 486 30,000  Level FlightAware ADS-B
Wed 11:17:48 PM 35.7794 -84.7594 355° North 425 489 30,000  Level FlightAware ADS-B
Wed 11:18:18 PM 35.8382 -84.7655 355° North 425 489 30,000  Level FlightAware ADS-B
Wed 11:18:49 PM 35.8988 -84.7716 355° North 426 490 30,000  Level FlightAware ADS-B
Wed 11:19:24 PM 35.9676 -84.7787 355° North 426 490 30,000  Level FlightAware ADS-B
Wed 11:19:55 PM 36.0293 -84.7851 355° North 425 489 30,000  Level FlightAware ADS-B
Wed 11:20:25 PM 36.0886 -84.7912 355° North 424 488 30,000  Level FlightAware ADS-B
Wed 11:20:55 PM 36.1473 -84.7972 355° North 424 488 30,000  Level FlightAware ADS-B
Wed 11:21:26 PM 36.2080 -84.8035 355° North 423 487 30,000  Level FlightAware ADS-B
Wed 11:22:02 PM 36.2771 -84.8106 355° North 423 487 30,000  Level FlightAware ADS-B
Wed 11:22:43 PM 36.3569 -84.8186 355° North 423 487 30,000  Level FlightAware ADS-B
Wed 11:23:14 PM 36.4191 -84.8247 355° North 423 487 30,000 -97 Level FlightAware ADS-B
Wed 11:23:45 PM 36.4785 -84.8305 356° North 423 487 29,900 -659 Descending FlightAware ADS-B
Wed 11:24:36 PM 36.5791 -84.8405 355° North 422 486 29,100 -1,174 Descending FlightAware ADS-B
Wed 11:25:17 PM 36.6579 -84.8485 355° North 414 476 28,100 -2,104 Descending FlightAware ADS-B
Wed 11:25:53 PM 36.7256 -84.8555 355° North 416 479 26,400 -3,171 Descending FlightAware ADS-B
Wed 11:26:27 PM 36.7922 -84.8625 355° North 426 490 24,400 -3,000 Descending FlightAware ADS-B
Wed 11:26:57 PM 36.8513 -84.8685 355° North 419 482 23,200 -2,300 Descending FlightAware ADS-B
Wed 11:27:27 PM 36.9090 -84.8746 355° North 409 471 22,100 -2,250 Descending FlightAware ADS-B
Wed 11:28:01 PM 36.9723 -84.8813 355° North 396 456 20,800 -2,364 Descending FlightAware ADS-B
Wed 11:28:33 PM 37.0298 -84.8874 355° North 392 451 19,500 -1,630 Descending FlightAware ADS-B
Wed 11:29:33 PM 37.1260 -84.8980 355° North 381 438 18,300 -554 Descending FlightAware ADS-B
Wed 11:30:43 PM 37.2300 -84.9090 355° North 381 438 18,300  Level FlightAware ADS-B
Wed 11:31:17 PM 37.2810 -84.9150 355° North 381 438 18,300 -3,305 Level FlightAware ADS-B
Wed 11:31:57 PM 37.3650 -84.9220 356° North 12,400 -4,643 Descending FlightAware ADS-B
Wed 11:32:41 PM 37.4250 -84.9290 355° North 310 357 11,800 -450 Descending FlightAware ADS-B
Wed 11:33:17 PM 37.4690 -84.9350 354° North 310 357 11,800 -684 Level FlightAware ADS-B
Wed 11:34:00 PM 37.5350 -84.9400 357° North 287 330 10,900 -786 Descending FlightAware ADS-B
Wed 11:34:41 PM 37.5840 -84.9450 355° North 284 327 10,700 -160 Descending FlightAware ADS-B
Wed 11:35:15 PM 37.6220 -84.9490 355° North 284 327 10,700  Level FlightAware ADS-B
Wed 11:36:03 PM 37.6760 -84.9550 355° North 284 327 10,700 -1,025 Level FlightAware ADS-B
Wed 11:37:53 PM 37.7590 -85.1290 301° West 274 315 8,000 -1,296 Descending FlightAware ADS-B
Wed 11:38:08 PM 37.7680 -85.1510 297° West 274 315 8,000  Level FlightAware ADS-B
Wed 11:38:33 PM 37.7840 -85.1940 295° West 273 314 8,000  Level FlightAware ADS-B
Wed 11:38:48 PM 37.7910 -85.2130 295° West 273 314 8,000 -450 Level FlightAware ADS-B
Wed 11:39:13 PM 37.8060 -85.2500 297° West 272 313 7,700 -1,080 Descending FlightAware ADS-B
Wed 11:39:38 PM 37.8200 -85.2870 296° West 272 313 7,100 -1,527 Descending FlightAware ADS-B
Wed 11:40:08 PM 37.8350 -85.3280 295° West 271 312 6,300 -1,650 Descending FlightAware ADS-B
Wed 11:40:18 PM 37.8410 -85.3450 294° West 271 312 6,000 -1,650 Descending FlightAware ADS-B
Wed 11:40:48 PM 37.8580 -85.3890 296° West 273 314 5,200 -1,091 Descending FlightAware ADS-B
Wed 11:41:13 PM 37.8700 -85.4230 294° West 271 312 5,000 -600 Descending FlightAware ADS-B
Wed 11:41:38 PM 37.8830 -85.4570 296° West 272 313 4,700 -982 Descending FlightAware ADS-B
Wed 11:42:08 PM 37.9000 -85.5020 296° West 271 312 4,100 -873 Descending FlightAware ADS-B
Wed 11:42:33 PM 37.9120 -85.5350 295° West 268 308 3,900 -109 Descending FlightAware ADS-B
Wed 11:43:03 PM 37.9300 -85.5820 296° West 272 313 4,000 150 Climbing FlightAware ADS-B
Wed 11:43:13 PM 37.9350 -85.5960 294° West 271 312 4,000 -450 Level FlightAware ADS-B
Wed 11:43:43 PM 37.9500 -85.6370 295° West 257 296 3,700 -533 Descending FlightAware ADS-B
Wed 11:43:58 PM 37.9590 -85.6540 304° West 246 283 3,600 -667 Descending FlightAware ADS-B
Wed 11:44:28 PM 37.9830 -85.6810 318° Northwest 225 259 3,200 -764 Descending FlightAware ADS-B
Wed 11:44:53 PM 38.0090 -85.6900 345° North 201 231 2,900 -327 Descending FlightAware ADS-B
Wed 11:45:23 PM 38.0310 -85.6970 346° North 183 211 2,900 -400 Level FlightAware ADS-B
Wed 11:45:53 PM 38.0560 -85.7060 344° North 177 204 2,500 -840 Descending FlightAware ADS-B
Wed 11:46:13 PM 38.0720 -85.7110 346° North 168 193 2,200 -894 Descending FlightAware ADS-B
Wed 11:46:40 PM 38.0910 -85.7170 346° North 132 152 1,800 -750 Descending FlightAware ADS-B
Wed 11:47:09 PM 38.1060 -85.7220 345° North 113 130 1,500 -585 Descending FlightAware ADS-B
Wed 11:47:21 PM 38.1120 -85.7240 345° North 113 130 1,400 -600 Descending FlightAware ADS-B
Wed 11:47:49 PM 38.1270 -85.7290 345° North 114 131 1,100 -692 Descending FlightAware ADS-B
Wed 11:48:13 PM 38.1400 -85.7330 346° North 115 132 800 -545 Descending FlightAware ADS-B
Wed 11:48:33 PM 38.1500 -85.7360 347° North 118 136 700 -290 Descending FlightAware ADS-B
Wed 11:49:15 PM 38.1700 -85.7430 345° North 118 136 500 -286 Descending FlightAware ADS-B
Wed 11:49:39 PM 38.1730 -85.7440 345° North 15 17 -1,250 Descending FlightAware ADS-B
Wed 11:49:58 PM 38.1740 -85.7430 38° Northeast 26 30  Level FlightAware ADS-B
Wed 11:50:10 PM 38.1740 -85.7420 90° East 27 31  Level FlightAware ADS-B
Wed 11:50:37 PM 38.1730 -85.7410 142° Southeast 17 20  Level FlightAware ADS-B
Wed 11:50:49 PM 38.1710 -85.7410 180° South 18 21  Level FlightAware ADS-B
Wed 11:51:31 PM 38.1690 -85.7400 159° South 12 14  Level FlightAware ADS-B
Wed 11:56:00 PM 38.1667 -85.7333 208° Southwest  Level FlightAware Approximate

Login

Don't have an account? Register now (free) for customized features, flight alerts, and more!